sensor_id;sensor_type;location;lat;lon;timestamp;P1;durP1;ratioP1;P2;durP2;ratioP2
72493;SDS011;60520;49.182;-0.348;2024-03-08T00:00:05;2.35;;;1.77;;
72493;SDS011;60520;49.182;-0.348;2024-03-08T00:02:37;2.00;;;1.65;;
72493;SDS011;60520;49.182;-0.348;2024-03-08T00:05:04;2.75;;;1.50;;
72493;SDS011;60520;49.182;-0.348;2024-03-08T00:07:32;3.40;;;2.08;;
72493;SDS011;60520;49.182;-0.348;2024-03-08T00:09:59;2.58;;;1.80;;
72493;SDS011;60520;49.182;-0.348;2024-03-08T00:12:27;2.53;;;2.13;;
72493;SDS011;60520;49.182;-0.348;2024-03-08T00:14:55;2.42;;;1.92;;
72493;SDS011;60520;49.182;-0.348;2024-03-08T00:17:22;1.98;;;1.60;;
72493;SDS011;60520;49.182;-0.348;2024-03-08T00:19:50;2.15;;;1.77;;
72493;SDS011;60520;49.182;-0.348;2024-03-08T00:22:17;1.95;;;1.63;;
72493;SDS011;60520;49.182;-0.348;2024-03-08T00:24:44;3.05;;;1.98;;
72493;SDS011;60520;49.182;-0.348;2024-03-08T00:27:11;1.98;;;1.60;;
72493;SDS011;60520;49.182;-0.348;2024-03-08T00:29:40;1.92;;;1.50;;
72493;SDS011;60520;49.182;-0.348;2024-03-08T00:32:09;2.20;;;1.70;;
72493;SDS011;60520;49.182;-0.348;2024-03-08T00:34:36;3.45;;;2.20;;
72493;SDS011;60520;49.182;-0.348;2024-03-08T00:37:03;2.70;;;1.80;;
72493;SDS011;60520;49.182;-0.348;2024-03-08T00:39:30;2.47;;;2.08;;
72493;SDS011;60520;49.182;-0.348;2024-03-08T00:41:58;1.92;;;1.70;;
72493;SDS011;60520;49.182;-0.348;2024-03-08T00:44:25;3.38;;;1.95;;
72493;SDS011;60520;49.182;-0.348;2024-03-08T00:46:52;2.65;;;1.92;;
72493;SDS011;60520;49.182;-0.348;2024-03-08T00:49:21;2.40;;;2.00;;
72493;SDS011;60520;49.182;-0.348;2024-03-08T00:51:48;3.00;;;2.05;;
72493;SDS011;60520;49.182;-0.348;2024-03-08T00:54:15;3.00;;;2.15;;
72493;SDS011;60520;49.182;-0.348;2024-03-08T00:56:42;2.40;;;1.98;;
72493;SDS011;60520;49.182;-0.348;2024-03-08T00:59:11;1.98;;;1.77;;
72493;SDS011;60520;49.182;-0.348;2024-03-08T01:01:39;2.75;;;1.90;;
72493;SDS011;60520;49.182;-0.348;2024-03-08T01:04:06;2.95;;;2.25;;
72493;SDS011;60520;49.182;-0.348;2024-03-08T01:06:35;3.25;;;2.22;;
72493;SDS011;60520;49.182;-0.348;2024-03-08T01:09:02;2.75;;;1.98;;
72493;SDS011;60520;49.182;-0.348;2024-03-08T01:11:32;2.47;;;2.05;;
72493;SDS011;60520;49.182;-0.348;2024-03-08T01:13:59;2.70;;;2.10;;
72493;SDS011;60520;49.182;-0.348;2024-03-08T01:16:28;3.58;;;2.30;;
72493;SDS011;60520;49.182;-0.348;2024-03-08T01:18:55;2.10;;;1.90;;
72493;SDS011;60520;49.182;-0.348;2024-03-08T01:21:23;3.05;;;2.20;;
72493;SDS011;60520;49.182;-0.348;2024-03-08T01:23:51;3.13;;;2.33;;
72493;SDS011;60520;49.182;-0.348;2024-03-08T01:26:18;2.50;;;1.95;;
72493;SDS011;60520;49.182;-0.348;2024-03-08T01:28:45;2.50;;;1.90;;
72493;SDS011;60520;49.182;-0.348;2024-03-08T01:31:12;3.92;;;1.92;;
72493;SDS011;60520;49.182;-0.348;2024-03-08T01:33:41;2.83;;;2.10;;
72493;SDS011;60520;49.182;-0.348;2024-03-08T01:36:08;2.55;;;1.90;;
72493;SDS011;60520;49.182;-0.348;2024-03-08T01:38:35;2.38;;;1.75;;
72493;SDS011;60520;49.182;-0.348;2024-03-08T01:41:03;2.90;;;2.20;;
72493;SDS011;60520;49.182;-0.348;2024-03-08T01:43:31;2.30;;;1.90;;
72493;SDS011;60520;49.182;-0.348;2024-03-08T01:45:58;2.33;;;2.10;;
72493;SDS011;60520;49.182;-0.348;2024-03-08T01:48:25;2.55;;;1.80;;
72493;SDS011;60520;49.182;-0.348;2024-03-08T01:50:53;2.53;;;2.10;;
72493;SDS011;60520;49.182;-0.348;2024-03-08T01:53:20;3.40;;;2.03;;
72493;SDS011;60520;49.182;-0.348;2024-03-08T01:55:48;3.10;;;2.33;;
72493;SDS011;60520;49.182;-0.348;2024-03-08T01:58:18;3.13;;;2.28;;
72493;SDS011;60520;49.182;-0.348;2024-03-08T02:00:47;3.15;;;2.30;;
72493;SDS011;60520;49.182;-0.348;2024-03-08T02:03:15;2.70;;;2.15;;
72493;SDS011;60520;49.182;-0.348;2024-03-08T02:05:42;2.78;;;2.33;;
72493;SDS011;60520;49.182;-0.348;2024-03-08T02:08:09;3.10;;;2.35;;
72493;SDS011;60520;49.182;-0.348;2024-03-08T02:10:39;3.15;;;2.40;;
72493;SDS011;60520;49.182;-0.348;2024-03-08T02:13:07;3.20;;;2.22;;
72493;SDS011;60520;49.182;-0.348;2024-03-08T02:15:51;3.13;;;2.20;;
72493;SDS011;60520;49.182;-0.348;2024-03-08T02:18:18;2.70;;;2.30;;
72493;SDS011;60520;49.182;-0.348;2024-03-08T02:20:47;3.30;;;2.58;;
72493;SDS011;60520;49.182;-0.348;2024-03-08T02:23:14;3.83;;;2.70;;
72493;SDS011;60520;49.182;-0.348;2024-03-08T02:25:41;3.45;;;2.45;;
72493;SDS011;60520;49.182;-0.348;2024-03-08T02:28:09;2.53;;;2.03;;
72493;SDS011;60520;49.182;-0.348;2024-03-08T02:30:36;2.47;;;2.13;;
72493;SDS011;60520;49.182;-0.348;2024-03-08T02:33:03;3.08;;;2.00;;
72493;SDS011;60520;49.182;-0.348;2024-03-08T02:35:30;3.00;;;2.08;;
72493;SDS011;60520;49.182;-0.348;2024-03-08T02:37:59;2.70;;;2.10;;
72493;SDS011;60520;49.182;-0.348;2024-03-08T02:40:26;2.70;;;2.20;;
72493;SDS011;60520;49.182;-0.348;2024-03-08T02:42:53;2.38;;;1.95;;
72493;SDS011;60520;49.182;-0.348;2024-03-08T02:45:20;3.45;;;2.28;;
72493;SDS011;60520;49.182;-0.348;2024-03-08T02:47:47;3.40;;;2.10;;
72493;SDS011;60520;49.182;-0.348;2024-03-08T02:50:15;3.20;;;2.45;;
72493;SDS011;60520;49.182;-0.348;2024-03-08T02:52:42;3.65;;;2.20;;
72493;SDS011;60520;49.182;-0.348;2024-03-08T02:55:12;3.67;;;2.22;;
72493;SDS011;60520;49.182;-0.348;2024-03-08T02:57:41;2.25;;;1.95;;
72493;SDS011;60520;49.182;-0.348;2024-03-08T03:00:09;2.75;;;2.20;;
72493;SDS011;60520;49.182;-0.348;2024-03-08T03:02:37;3.22;;;2.33;;
72493;SDS011;60520;49.182;-0.348;2024-03-08T03:05:05;2.17;;;1.90;;
72493;SDS011;60520;49.182;-0.348;2024-03-08T03:07:34;2.97;;;2.17;;
72493;SDS011;60520;49.182;-0.348;2024-03-08T03:10:02;3.50;;;2.20;;
72493;SDS011;60520;49.182;-0.348;2024-03-08T03:12:31;1.83;;;1.63;;
72493;SDS011;60520;49.182;-0.348;2024-03-08T03:14:58;3.15;;;2.47;;
72493;SDS011;60520;49.182;-0.348;2024-03-08T03:17:26;2.85;;;2.40;;
72493;SDS011;60520;49.182;-0.348;2024-03-08T03:19:53;3.28;;;2.47;;
72493;SDS011;60520;49.182;-0.348;2024-03-08T03:22:21;3.58;;;2.30;;
72493;SDS011;60520;49.182;-0.348;2024-03-08T03:24:48;2.65;;;2.28;;
72493;SDS011;60520;49.182;-0.348;2024-03-08T03:27:16;3.20;;;2.35;;
72493;SDS011;60520;49.182;-0.348;2024-03-08T03:29:44;2.47;;;2.28;;
72493;SDS011;60520;49.182;-0.348;2024-03-08T03:32:11;2.38;;;2.13;;
72493;SDS011;60520;49.182;-0.348;2024-03-08T03:34:38;3.08;;;2.20;;
72493;SDS011;60520;49.182;-0.348;2024-03-08T03:37:06;2.88;;;2.15;;
72493;SDS011;60520;49.182;-0.348;2024-03-08T03:39:33;3.13;;;2.42;;
72493;SDS011;60520;49.182;-0.348;2024-03-08T03:42:05;2.35;;;1.90;;
72493;SDS011;60520;49.182;-0.348;2024-03-08T03:44:32;3.17;;;2.47;;
72493;SDS011;60520;49.182;-0.348;2024-03-08T03:47:01;2.65;;;2.17;;
72493;SDS011;60520;49.182;-0.348;2024-03-08T03:49:28;3.30;;;2.33;;
72493;SDS011;60520;49.182;-0.348;2024-03-08T03:51:55;2.67;;;2.20;;
72493;SDS011;60520;49.182;-0.348;2024-03-08T03:54:22;3.08;;;2.45;;
72493;SDS011;60520;49.182;-0.348;2024-03-08T03:56:49;3.05;;;2.28;;
72493;SDS011;60520;49.182;-0.348;2024-03-08T03:59:18;3.28;;;2.67;;
72493;SDS011;60520;49.182;-0.348;2024-03-08T04:01:45;3.03;;;2.50;;
72493;SDS011;60520;49.182;-0.348;2024-03-08T04:04:15;2.78;;;2.25;;
72493;SDS011;60520;49.182;-0.348;2024-03-08T04:06:43;3.30;;;2.30;;
72493;SDS011;60520;49.182;-0.348;2024-03-08T04:09:10;3.17;;;2.50;;
72493;SDS011;60520;49.182;-0.348;2024-03-08T04:11:37;2.88;;;2.10;;
72493;SDS011;60520;49.182;-0.348;2024-03-08T04:14:04;3.03;;;2.25;;
72493;SDS011;60520;49.182;-0.348;2024-03-08T04:16:31;2.60;;;2.30;;
72493;SDS011;60520;49.182;-0.348;2024-03-08T04:18:59;3.10;;;2.70;;
72493;SDS011;60520;49.182;-0.348;2024-03-08T04:21:31;2.42;;;2.20;;
72493;SDS011;60520;49.182;-0.348;2024-03-08T04:23:58;2.83;;;2.20;;
72493;SDS011;60520;49.182;-0.348;2024-03-08T04:26:25;3.47;;;2.35;;
72493;SDS011;60520;49.182;-0.348;2024-03-08T04:28:52;3.08;;;2.25;;
72493;SDS011;60520;49.182;-0.348;2024-03-08T04:31:19;2.97;;;2.40;;
72493;SDS011;60520;49.182;-0.348;2024-03-08T04:33:47;3.63;;;2.38;;
72493;SDS011;60520;49.182;-0.348;2024-03-08T04:36:14;3.33;;;2.15;;
72493;SDS011;60520;49.182;-0.348;2024-03-08T04:38:43;2.70;;;2.13;;
72493;SDS011;60520;49.182;-0.348;2024-03-08T04:41:10;3.10;;;2.40;;
72493;SDS011;60520;49.182;-0.348;2024-03-08T04:43:38;2.83;;;2.47;;
72493;SDS011;60520;49.182;-0.348;2024-03-08T04:46:05;3.15;;;2.30;;
72493;SDS011;60520;49.182;-0.348;2024-03-08T04:48:32;3.22;;;2.53;;
72493;SDS011;60520;49.182;-0.348;2024-03-08T04:51:01;3.40;;;2.60;;
72493;SDS011;60520;49.182;-0.348;2024-03-08T04:53:29;2.42;;;1.92;;
72493;SDS011;60520;49.182;-0.348;2024-03-08T04:55:59;2.80;;;2.30;;
72493;SDS011;60520;49.182;-0.348;2024-03-08T04:58:31;3.38;;;2.20;;
72493;SDS011;60520;49.182;-0.348;2024-03-08T05:00:59;2.97;;;2.47;;
72493;SDS011;60520;49.182;-0.348;2024-03-08T05:03:26;2.85;;;2.28;;
72493;SDS011;60520;49.182;-0.348;2024-03-08T05:05:55;4.03;;;2.28;;
72493;SDS011;60520;49.182;-0.348;2024-03-08T05:08:22;2.53;;;2.03;;
72493;SDS011;60520;49.182;-0.348;2024-03-08T05:10:49;2.58;;;2.17;;
72493;SDS011;60520;49.182;-0.348;2024-03-08T05:13:18;2.80;;;2.40;;
72493;SDS011;60520;49.182;-0.348;2024-03-08T05:15:47;3.08;;;2.30;;
72493;SDS011;60520;49.182;-0.348;2024-03-08T05:18:15;3.33;;;2.38;;
72493;SDS011;60520;49.182;-0.348;2024-03-08T05:20:42;2.78;;;2.22;;
72493;SDS011;60520;49.182;-0.348;2024-03-08T05:23:09;2.50;;;2.05;;
72493;SDS011;60520;49.182;-0.348;2024-03-08T05:25:36;2.75;;;2.45;;
72493;SDS011;60520;49.182;-0.348;2024-03-08T05:28:04;3.03;;;2.22;;
72493;SDS011;60520;49.182;-0.348;2024-03-08T05:30:33;3.38;;;2.20;;
72493;SDS011;60520;49.182;-0.348;2024-03-08T05:33:01;2.75;;;2.25;;
72493;SDS011;60520;49.182;-0.348;2024-03-08T05:35:29;3.00;;;2.10;;
72493;SDS011;60520;49.182;-0.348;2024-03-08T05:37:57;3.10;;;2.20;;
72493;SDS011;60520;49.182;-0.348;2024-03-08T05:40:24;3.08;;;2.30;;
72493;SDS011;60520;49.182;-0.348;2024-03-08T05:42:51;3.08;;;2.47;;
72493;SDS011;60520;49.182;-0.348;2024-03-08T05:45:19;3.47;;;2.25;;
72493;SDS011;60520;49.182;-0.348;2024-03-08T05:47:47;2.75;;;2.20;;
72493;SDS011;60520;49.182;-0.348;2024-03-08T05:50:14;2.63;;;2.33;;
72493;SDS011;60520;49.182;-0.348;2024-03-08T05:52:41;2.90;;;2.42;;
72493;SDS011;60520;49.182;-0.348;2024-03-08T05:55:09;2.90;;;2.40;;
72493;SDS011;60520;49.182;-0.348;2024-03-08T05:57:39;3.03;;;2.25;;
72493;SDS011;60520;49.182;-0.348;2024-03-08T06:00:07;2.85;;;2.15;;
72493;SDS011;60520;49.182;-0.348;2024-03-08T06:02:35;2.45;;;2.00;;
72493;SDS011;60520;49.182;-0.348;2024-03-08T06:05:07;2.58;;;2.10;;
72493;SDS011;60520;49.182;-0.348;2024-03-08T06:07:34;4.00;;;2.05;;
72493;SDS011;60520;49.182;-0.348;2024-03-08T06:10:02;3.17;;;2.30;;
72493;SDS011;60520;49.182;-0.348;2024-03-08T06:12:29;2.70;;;2.38;;
72493;SDS011;60520;49.182;-0.348;2024-03-08T06:14:58;2.58;;;2.20;;
72493;SDS011;60520;49.182;-0.348;2024-03-08T06:17:26;2.10;;;1.90;;
72493;SDS011;60520;49.182;-0.348;2024-03-08T06:19:53;3.08;;;2.40;;
72493;SDS011;60520;49.182;-0.348;2024-03-08T06:22:21;3.55;;;2.47;;
72493;SDS011;60520;49.182;-0.348;2024-03-08T06:24:49;2.63;;;2.05;;
72493;SDS011;60520;49.182;-0.348;2024-03-08T06:27:16;2.50;;;2.10;;
72493;SDS011;60520;49.182;-0.348;2024-03-08T06:29:43;2.80;;;2.20;;
72493;SDS011;60520;49.182;-0.348;2024-03-08T06:32:11;2.47;;;2.15;;
72493;SDS011;60520;49.182;-0.348;2024-03-08T06:34:40;3.33;;;2.50;;
72493;SDS011;60520;49.182;-0.348;2024-03-08T06:37:07;2.22;;;2.00;;
72493;SDS011;60520;49.182;-0.348;2024-03-08T06:39:36;2.55;;;1.90;;
72493;SDS011;60520;49.182;-0.348;2024-03-08T06:42:03;3.22;;;2.47;;
72493;SDS011;60520;49.182;-0.348;2024-03-08T06:44:31;2.88;;;2.28;;
72493;SDS011;60520;49.182;-0.348;2024-03-08T06:46:59;2.75;;;2.20;;
72493;SDS011;60520;49.182;-0.348;2024-03-08T06:49:26;2.72;;;2.28;;
72493;SDS011;60520;49.182;-0.348;2024-03-08T06:51:54;2.63;;;2.05;;
72493;SDS011;60520;49.182;-0.348;2024-03-08T06:54:22;2.28;;;1.95;;
72493;SDS011;60520;49.182;-0.348;2024-03-08T06:56:51;3.00;;;2.20;;
72493;SDS011;60520;49.182;-0.348;2024-03-08T06:59:18;2.95;;;2.15;;
72493;SDS011;60520;49.182;-0.348;2024-03-08T07:01:45;2.55;;;2.15;;
72493;SDS011;60520;49.182;-0.348;2024-03-08T07:04:13;2.75;;;2.08;;
72493;SDS011;60520;49.182;-0.348;2024-03-08T07:06:40;2.50;;;1.90;;
72493;SDS011;60520;49.182;-0.348;2024-03-08T07:09:07;3.85;;;2.30;;
72493;SDS011;60520;49.182;-0.348;2024-03-08T07:11:34;2.78;;;2.20;;
72493;SDS011;60520;49.182;-0.348;2024-03-08T07:14:03;2.40;;;1.88;;
72493;SDS011;60520;49.182;-0.348;2024-03-08T07:16:31;2.40;;;1.95;;
72493;SDS011;60520;49.182;-0.348;2024-03-08T07:18:59;2.22;;;1.92;;
72493;SDS011;60520;49.182;-0.348;2024-03-08T07:21:26;3.28;;;2.40;;
72493;SDS011;60520;49.182;-0.348;2024-03-08T07:23:54;2.25;;;1.98;;
72493;SDS011;60520;49.182;-0.348;2024-03-08T07:26:38;2.40;;;1.95;;
72493;SDS011;60520;49.182;-0.348;2024-03-08T07:29:07;3.00;;;2.03;;
72493;SDS011;60520;49.182;-0.348;2024-03-08T07:31:34;2.65;;;1.98;;
72493;SDS011;60520;49.182;-0.348;2024-03-08T07:34:15;3.40;;;2.05;;
72493;SDS011;60520;49.182;-0.348;2024-03-08T07:36:42;2.58;;;2.10;;
72493;SDS011;60520;49.182;-0.348;2024-03-08T07:39:09;2.53;;;2.10;;
72493;SDS011;60520;49.182;-0.348;2024-03-08T07:41:37;2.00;;;1.80;;
72493;SDS011;60520;49.182;-0.348;2024-03-08T07:44:06;2.50;;;2.00;;
72493;SDS011;60520;49.182;-0.348;2024-03-08T07:46:34;2.55;;;1.95;;
72493;SDS011;60520;49.182;-0.348;2024-03-08T07:49:02;2.08;;;1.88;;
72493;SDS011;60520;49.182;-0.348;2024-03-08T07:51:29;1.90;;;1.70;;
72493;SDS011;60520;49.182;-0.348;2024-03-08T07:53:56;2.20;;;1.85;;
72493;SDS011;60520;49.182;-0.348;2024-03-08T07:56:25;2.70;;;2.13;;
72493;SDS011;60520;49.182;-0.348;2024-03-08T07:58:52;2.60;;;2.10;;
72493;SDS011;60520;49.182;-0.348;2024-03-08T08:01:21;1.98;;;1.65;;
72493;SDS011;60520;49.182;-0.348;2024-03-08T08:03:48;2.75;;;2.33;;
72493;SDS011;60520;49.182;-0.348;2024-03-08T08:06:15;2.38;;;2.00;;
72493;SDS011;60520;49.182;-0.348;2024-03-08T08:08:42;2.03;;;1.80;;
72493;SDS011;60520;49.182;-0.348;2024-03-08T08:11:09;2.17;;;1.75;;
72493;SDS011;60520;49.182;-0.348;2024-03-08T08:13:37;2.20;;;1.88;;
72493;SDS011;60520;49.182;-0.348;2024-03-08T08:16:04;2.85;;;2.10;;
72493;SDS011;60520;49.182;-0.348;2024-03-08T08:18:34;2.10;;;1.90;;
72493;SDS011;60520;49.182;-0.348;2024-03-08T08:21:01;1.95;;;1.75;;
72493;SDS011;60520;49.182;-0.348;2024-03-08T08:23:30;2.15;;;1.90;;
72493;SDS011;60520;49.182;-0.348;2024-03-08T08:25:57;2.22;;;1.75;;
72493;SDS011;60520;49.182;-0.348;2024-03-08T08:28:25;1.75;;;1.63;;
72493;SDS011;60520;49.182;-0.348;2024-03-08T08:30:52;1.92;;;1.73;;
72493;SDS011;60520;49.182;-0.348;2024-03-08T08:33:19;1.92;;;1.70;;
72493;SDS011;60520;49.182;-0.348;2024-03-08T08:35:46;2.00;;;1.80;;
72493;SDS011;60520;49.182;-0.348;2024-03-08T08:38:16;2.15;;;1.70;;
72493;SDS011;60520;49.182;-0.348;2024-03-08T08:40:45;2.88;;;2.08;;
72493;SDS011;60520;49.182;-0.348;2024-03-08T08:43:12;2.22;;;1.88;;
72493;SDS011;60520;49.182;-0.348;2024-03-08T08:45:39;2.85;;;2.10;;
72493;SDS011;60520;49.182;-0.348;2024-03-08T08:48:07;2.60;;;1.83;;
72493;SDS011;60520;49.182;-0.348;2024-03-08T08:50:35;2.28;;;1.70;;
72493;SDS011;60520;49.182;-0.348;2024-03-08T08:53:04;2.75;;;1.80;;
72493;SDS011;60520;49.182;-0.348;2024-03-08T08:55:34;1.88;;;1.67;;
72493;SDS011;60520;49.182;-0.348;2024-03-08T08:58:01;1.92;;;1.70;;
72493;SDS011;60520;49.182;-0.348;2024-03-08T09:00:29;2.25;;;1.60;;
72493;SDS011;60520;49.182;-0.348;2024-03-08T09:02:57;2.10;;;1.60;;
72493;SDS011;60520;49.182;-0.348;2024-03-08T09:05:25;1.75;;;1.45;;
72493;SDS011;60520;49.182;-0.348;2024-03-08T09:07:52;2.00;;;1.80;;
72493;SDS011;60520;49.182;-0.348;2024-03-08T09:10:21;1.77;;;1.60;;
72493;SDS011;60520;49.182;-0.348;2024-03-08T09:12:48;3.75;;;1.85;;
72493;SDS011;60520;49.182;-0.348;2024-03-08T09:15:15;5.57;;;1.80;;
72493;SDS011;60520;49.182;-0.348;2024-03-08T09:17:45;2.10;;;1.70;;
72493;SDS011;60520;49.182;-0.348;2024-03-08T09:20:13;2.55;;;1.80;;
72493;SDS011;60520;49.182;-0.348;2024-03-08T09:22:40;2.58;;;1.80;;
72493;SDS011;60520;49.182;-0.348;2024-03-08T09:25:10;1.63;;;1.42;;
72493;SDS011;60520;49.182;-0.348;2024-03-08T09:27:39;2.28;;;1.83;;
72493;SDS011;60520;49.182;-0.348;2024-03-08T09:30:06;2.70;;;2.03;;
72493;SDS011;60520;49.182;-0.348;2024-03-08T09:32:34;2.13;;;1.80;;
72493;SDS011;60520;49.182;-0.348;2024-03-08T09:35:02;4.45;;;2.08;;
72493;SDS011;60520;49.182;-0.348;2024-03-08T09:37:32;2.85;;;1.88;;
72493;SDS011;60520;49.182;-0.348;2024-03-08T09:39:59;2.20;;;1.70;;
72493;SDS011;60520;49.182;-0.348;2024-03-08T09:42:29;1.85;;;1.50;;
72493;SDS011;60520;49.182;-0.348;2024-03-08T09:44:59;4.97;;;1.70;;
72493;SDS011;60520;49.182;-0.348;2024-03-08T09:47:26;2.72;;;1.40;;
72493;SDS011;60520;49.182;-0.348;2024-03-08T09:49:58;1.90;;;1.50;;
72493;SDS011;60520;49.182;-0.348;2024-03-08T09:52:26;2.20;;;1.77;;
72493;SDS011;60520;49.182;-0.348;2024-03-08T09:54:55;2.30;;;1.55;;
72493;SDS011;60520;49.182;-0.348;2024-03-08T09:57:23;1.88;;;1.63;;
72493;SDS011;60520;49.182;-0.348;2024-03-08T09:59:50;1.77;;;1.40;;
72493;SDS011;60520;49.182;-0.348;2024-03-08T10:02:19;1.83;;;1.55;;
72493;SDS011;60520;49.182;-0.348;2024-03-08T10:04:46;1.63;;;1.50;;
72493;SDS011;60520;49.182;-0.348;2024-03-08T10:07:13;3.55;;;1.63;;
72493;SDS011;60520;49.182;-0.348;2024-03-08T10:09:40;2.28;;;1.60;;
72493;SDS011;60520;49.182;-0.348;2024-03-08T10:12:12;1.50;;;1.40;;
72493;SDS011;60520;49.182;-0.348;2024-03-08T10:14:40;1.80;;;1.63;;
72493;SDS011;60520;49.182;-0.348;2024-03-08T10:17:08;105.57;;;6.00;;
72493;SDS011;60520;49.182;-0.348;2024-03-08T10:19:36;25.52;;;2.28;;
72493;SDS011;60520;49.182;-0.348;2024-03-08T10:22:04;139.32;;;8.77;;
72493;SDS011;60520;49.182;-0.348;2024-03-08T10:24:31;145.60;;;9.70;;
72493;SDS011;60520;49.182;-0.348;2024-03-08T10:26:59;92.95;;;6.70;;
72493;SDS011;60520;49.182;-0.348;2024-03-08T10:29:29;98.10;;;6.15;;
72493;SDS011;60520;49.182;-0.348;2024-03-08T10:31:57;44.97;;;4.22;;
72493;SDS011;60520;49.182;-0.348;2024-03-08T10:34:25;54.10;;;5.57;;
72493;SDS011;60520;49.182;-0.348;2024-03-08T10:36:53;45.25;;;4.38;;
72493;SDS011;60520;49.182;-0.348;2024-03-08T10:39:23;36.92;;;4.10;;
72493;SDS011;60520;49.182;-0.348;2024-03-08T10:41:53;33.78;;;3.92;;
72493;SDS011;60520;49.182;-0.348;2024-03-08T10:44:33;27.70;;;3.30;;
72493;SDS011;60520;49.182;-0.348;2024-03-08T10:47:02;25.77;;;3.22;;
72493;SDS011;60520;49.182;-0.348;2024-03-08T10:49:30;29.83;;;3.10;;
72493;SDS011;60520;49.182;-0.348;2024-03-08T10:52:01;25.08;;;3.45;;
72493;SDS011;60520;49.182;-0.348;2024-03-08T10:54:28;15.48;;;3.20;;
72493;SDS011;60520;49.182;-0.348;2024-03-08T10:56:56;18.67;;;3.10;;
72493;SDS011;60520;49.182;-0.348;2024-03-08T10:59:24;18.00;;;2.80;;
72493;SDS011;60520;49.182;-0.348;2024-03-08T11:01:53;12.00;;;2.88;;
72493;SDS011;60520;49.182;-0.348;2024-03-08T11:04:20;19.27;;;3.67;;
72493;SDS011;60520;49.182;-0.348;2024-03-08T11:06:50;21.05;;;3.13;;
72493;SDS011;60520;49.182;-0.348;2024-03-08T11:09:29;15.45;;;3.00;;
72493;SDS011;60520;49.182;-0.348;2024-03-08T11:14:42;16.23;;;3.42;;
72493;SDS011;60520;49.182;-0.348;2024-03-08T11:17:10;14.82;;;3.05;;
72493;SDS011;60520;49.182;-0.348;2024-03-08T11:19:37;12.95;;;2.85;;
72493;SDS011;60520;49.182;-0.348;2024-03-08T11:22:05;14.15;;;2.70;;
72493;SDS011;60520;49.182;-0.348;2024-03-08T11:24:39;6.60;;;2.53;;
72493;SDS011;60520;49.182;-0.348;2024-03-08T11:27:07;13.07;;;2.53;;
72493;SDS011;60520;49.182;-0.348;2024-03-08T11:29:38;9.93;;;2.88;;
72493;SDS011;60520;49.182;-0.348;2024-03-08T11:32:08;10.40;;;2.70;;
72493;SDS011;60520;49.182;-0.348;2024-03-08T11:34:36;7.18;;;2.67;;
72493;SDS011;60520;49.182;-0.348;2024-03-08T11:37:04;9.10;;;2.60;;
72493;SDS011;60520;49.182;-0.348;2024-03-08T11:39:34;12.73;;;2.67;;
72493;SDS011;60520;49.182;-0.348;2024-03-08T11:42:04;7.95;;;2.80;;
72493;SDS011;60520;49.182;-0.348;2024-03-08T11:44:32;7.35;;;2.80;;
72493;SDS011;60520;49.182;-0.348;2024-03-08T11:47:01;6.18;;;2.42;;
72493;SDS011;60520;49.182;-0.348;2024-03-08T11:49:31;10.77;;;2.65;;
72493;SDS011;60520;49.182;-0.348;2024-03-08T11:51:59;6.10;;;2.80;;
72493;SDS011;60520;49.182;-0.348;2024-03-08T11:54:26;9.18;;;2.85;;
72493;SDS011;60520;49.182;-0.348;2024-03-08T11:56:54;9.18;;;2.58;;
72493;SDS011;60520;49.182;-0.348;2024-03-08T11:59:27;10.02;;;2.97;;
72493;SDS011;60520;49.182;-0.348;2024-03-08T12:02:01;8.55;;;2.22;;
72493;SDS011;60520;49.182;-0.348;2024-03-08T12:04:28;6.22;;;2.55;;
72493;SDS011;60520;49.182;-0.348;2024-03-08T12:06:56;4.82;;;2.60;;
72493;SDS011;60520;49.182;-0.348;2024-03-08T12:09:23;6.53;;;2.72;;
72493;SDS011;60520;49.182;-0.348;2024-03-08T12:11:50;5.00;;;2.55;;
72493;SDS011;60520;49.182;-0.348;2024-03-08T12:14:17;5.72;;;2.55;;
72493;SDS011;60520;49.182;-0.348;2024-03-08T12:16:47;4.43;;;2.47;;
72493;SDS011;60520;49.182;-0.348;2024-03-08T12:19:14;7.18;;;2.40;;
72493;SDS011;60520;49.182;-0.348;2024-03-08T12:21:41;3.35;;;2.10;;
72493;SDS011;60520;49.182;-0.348;2024-03-08T12:24:14;3.15;;;2.15;;
72493;SDS011;60520;49.182;-0.348;2024-03-08T12:26:42;6.05;;;2.30;;
72493;SDS011;60520;49.182;-0.348;2024-03-08T12:29:16;5.40;;;2.47;;
72493;SDS011;60520;49.182;-0.348;2024-03-08T12:31:46;5.10;;;2.17;;
72493;SDS011;60520;49.182;-0.348;2024-03-08T12:34:13;3.53;;;2.20;;
72493;SDS011;60520;49.182;-0.348;2024-03-08T12:36:44;4.13;;;2.38;;
72493;SDS011;60520;49.182;-0.348;2024-03-08T12:39:12;4.47;;;2.40;;
72493;SDS011;60520;49.182;-0.348;2024-03-08T12:41:41;4.25;;;2.25;;
72493;SDS011;60520;49.182;-0.348;2024-03-08T12:44:08;4.57;;;2.38;;
72493;SDS011;60520;49.182;-0.348;2024-03-08T12:46:36;4.30;;;2.30;;
72493;SDS011;60520;49.182;-0.348;2024-03-08T12:49:07;4.65;;;2.38;;
72493;SDS011;60520;49.182;-0.348;2024-03-08T12:51:34;4.22;;;2.13;;
72493;SDS011;60520;49.182;-0.348;2024-03-08T12:54:04;4.13;;;2.17;;
72493;SDS011;60520;49.182;-0.348;2024-03-08T12:56:32;5.93;;;2.30;;
72493;SDS011;60520;49.182;-0.348;2024-03-08T12:58:59;4.63;;;2.30;;
72493;SDS011;60520;49.182;-0.348;2024-03-08T13:01:27;9.98;;;2.35;;
72493;SDS011;60520;49.182;-0.348;2024-03-08T13:03:57;24.83;;;3.22;;
72493;SDS011;60520;49.182;-0.348;2024-03-08T13:06:26;13.75;;;2.40;;
72493;SDS011;60520;49.182;-0.348;2024-03-08T13:08:54;12.93;;;2.40;;
72493;SDS011;60520;49.182;-0.348;2024-03-08T13:11:21;4.57;;;2.58;;
72493;SDS011;60520;49.182;-0.348;2024-03-08T13:13:49;5.68;;;2.28;;
72493;SDS011;60520;49.182;-0.348;2024-03-08T13:16:17;5.90;;;2.25;;
72493;SDS011;60520;49.182;-0.348;2024-03-08T13:18:44;3.60;;;2.15;;
72493;SDS011;60520;49.182;-0.348;2024-03-08T13:21:13;4.45;;;2.20;;
72493;SDS011;60520;49.182;-0.348;2024-03-08T13:23:46;6.00;;;2.47;;
72493;SDS011;60520;49.182;-0.348;2024-03-08T13:26:14;5.28;;;2.28;;
72493;SDS011;60520;49.182;-0.348;2024-03-08T13:28:42;4.45;;;2.33;;
72493;SDS011;60520;49.182;-0.348;2024-03-08T13:31:09;4.07;;;1.98;;
72493;SDS011;60520;49.182;-0.348;2024-03-08T13:33:36;4.45;;;2.00;;
72493;SDS011;60520;49.182;-0.348;2024-03-08T13:36:04;3.40;;;1.95;;
72493;SDS011;60520;49.182;-0.348;2024-03-08T13:38:39;5.07;;;2.30;;
72493;SDS011;60520;49.182;-0.348;2024-03-08T13:41:09;4.82;;;2.20;;
72493;SDS011;60520;49.182;-0.348;2024-03-08T13:43:36;4.95;;;2.05;;
72493;SDS011;60520;49.182;-0.348;2024-03-08T13:46:05;4.18;;;2.05;;
72493;SDS011;60520;49.182;-0.348;2024-03-08T13:48:32;4.75;;;2.03;;
72493;SDS011;60520;49.182;-0.348;2024-03-08T13:50:59;5.70;;;2.40;;
72493;SDS011;60520;49.182;-0.348;2024-03-08T13:53:26;5.35;;;2.50;;
72493;SDS011;60520;49.182;-0.348;2024-03-08T13:55:53;5.15;;;2.20;;
72493;SDS011;60520;49.182;-0.348;2024-03-08T13:58:23;6.38;;;2.50;;
72493;SDS011;60520;49.182;-0.348;2024-03-08T14:00:50;4.03;;;2.45;;
72493;SDS011;60520;49.182;-0.348;2024-03-08T14:03:17;6.57;;;2.63;;
72493;SDS011;60520;49.182;-0.348;2024-03-08T14:05:44;12.70;;;8.93;;
72493;SDS011;60520;49.182;-0.348;2024-03-08T14:08:12;20.40;;;7.40;;
72493;SDS011;60520;49.182;-0.348;2024-03-08T14:10:39;9.35;;;5.28;;
72493;SDS011;60520;49.182;-0.348;2024-03-08T14:13:07;11.43;;;4.93;;
72493;SDS011;60520;49.182;-0.348;2024-03-08T14:15:38;13.30;;;6.72;;
72493;SDS011;60520;49.182;-0.348;2024-03-08T14:18:07;16.00;;;9.70;;
72493;SDS011;60520;49.182;-0.348;2024-03-08T14:20:34;16.95;;;8.85;;
72493;SDS011;60520;49.182;-0.348;2024-03-08T14:23:02;11.95;;;8.93;;
72493;SDS011;60520;49.182;-0.348;2024-03-08T14:25:31;11.68;;;7.97;;
72493;SDS011;60520;49.182;-0.348;2024-03-08T14:27:58;12.60;;;9.02;;
72493;SDS011;60520;49.182;-0.348;2024-03-08T14:30:28;11.43;;;8.07;;
72493;SDS011;60520;49.182;-0.348;2024-03-08T14:33:01;13.30;;;7.40;;
72493;SDS011;60520;49.182;-0.348;2024-03-08T14:35:30;12.38;;;6.72;;
72493;SDS011;60520;49.182;-0.348;2024-03-08T14:37:57;10.93;;;5.20;;
72493;SDS011;60520;49.182;-0.348;2024-03-08T14:40:25;13.45;;;5.78;;